createdAt,value
2018-08-13T00:02:01.110Z,8.60
2018-08-13T00:04:31.445Z,8.93
2018-08-13T00:07:01.733Z,8.97
2018-08-13T00:09:36.976Z,8.07
2018-08-13T00:12:07.371Z,11.73
2018-08-13T00:14:37.757Z,9.80
2018-08-13T00:17:08.159Z,10.70
2018-08-13T00:19:38.579Z,10.00
2018-08-13T00:22:08.990Z,9.40
2018-08-13T00:24:39.314Z,9.83
2018-08-13T00:27:09.841Z,9.97
2018-08-13T00:29:40.190Z,10.00
2018-08-13T00:32:10.600Z,8.80
2018-08-13T00:34:41.125Z,9.03
2018-08-13T00:37:11.573Z,9.43
2018-08-13T00:39:41.849Z,10.70
2018-08-13T00:42:12.327Z,8.57
2018-08-13T00:44:43.249Z,9.17
2018-08-13T00:47:13.568Z,8.70
2018-08-13T00:49:43.894Z,11.30
2018-08-13T00:52:14.319Z,10.07
2018-08-13T00:54:44.599Z,11.50
2018-08-13T00:57:15.000Z,9.37
2018-08-13T00:59:45.431Z,11.30
2018-08-13T01:02:15.912Z,13.90
2018-08-13T01:04:46.197Z,9.17
2018-08-13T01:07:16.632Z,9.87
2018-08-13T01:09:47.171Z,9.83
2018-08-13T01:12:17.506Z,8.43
2018-08-13T01:14:47.986Z,9.30
2018-08-13T01:17:18.521Z,9.47
2018-08-13T01:19:48.794Z,9.50
2018-08-13T01:22:19.192Z,10.97
2018-08-13T01:24:49.566Z,9.67
2018-08-13T01:27:25.163Z,10.07
2018-08-13T01:29:55.670Z,9.80
2018-08-13T01:32:26.168Z,12.10
2018-08-13T01:34:56.720Z,9.27
2018-08-13T01:37:27.788Z,9.17
2018-08-13T01:39:58.565Z,9.00
2018-08-13T01:42:29.090Z,10.33
2018-08-13T01:44:59.653Z,9.20
2018-08-13T01:47:29.836Z,10.33
2018-08-13T01:50:00.178Z,9.37
2018-08-13T01:52:30.590Z,9.93
2018-08-13T01:55:01.086Z,10.27
2018-08-13T01:57:31.634Z,9.17
2018-08-13T02:00:01.880Z,10.27
2018-08-13T02:02:32.196Z,10.57
2018-08-13T02:05:02.568Z,11.83
2018-08-13T02:07:32.947Z,9.53
2018-08-13T02:10:03.521Z,9.77
2018-08-13T02:12:33.783Z,9.83
2018-08-13T02:15:04.375Z,11.70
2018-08-13T02:17:34.657Z,9.63
2018-08-13T02:20:05.995Z,9.20
2018-08-13T02:22:36.467Z,10.93
2018-08-13T02:25:08.119Z,9.60
2018-08-13T02:27:38.632Z,10.73
2018-08-13T02:30:11.673Z,9.63
2018-08-13T02:32:42.101Z,9.43
2018-08-13T02:35:12.535Z,15.30
2018-08-13T02:37:43.013Z,9.97
2018-08-13T02:40:13.395Z,9.10
2018-08-13T02:42:43.626Z,9.03
2018-08-13T02:45:14.107Z,12.97
2018-08-13T02:47:44.476Z,10.60
2018-08-13T02:50:14.995Z,13.70
2018-08-13T02:52:45.524Z,12.07
2018-08-13T02:55:16.137Z,10.73
2018-08-13T02:57:46.382Z,9.73
2018-08-13T03:00:16.739Z,11.23
2018-08-13T03:02:47.130Z,11.07
2018-08-13T03:05:17.547Z,13.40
2018-08-13T03:07:47.904Z,9.90
2018-08-13T03:10:18.392Z,11.67
2018-08-13T03:12:48.684Z,10.30
2018-08-13T03:15:18.986Z,10.80
2018-08-13T03:17:49.196Z,12.00
2018-08-13T03:20:19.774Z,12.03
2018-08-13T03:22:50.179Z,12.20
2018-08-13T03:25:20.833Z,9.47
2018-08-13T03:27:51.333Z,11.43
2018-08-13T03:30:21.638Z,9.17
2018-08-13T03:32:51.951Z,8.90
2018-08-13T03:35:22.543Z,10.50
2018-08-13T03:37:52.748Z,9.70
2018-08-13T03:40:23.187Z,9.47
2018-08-13T03:42:53.349Z,11.60
2018-08-13T03:45:23.638Z,11.10
2018-08-13T03:47:53.903Z,10.17
2018-08-13T03:50:24.381Z,10.77
2018-08-13T03:52:54.653Z,12.27
2018-08-13T03:55:25.035Z,13.93
2018-08-13T03:57:55.411Z,9.77
2018-08-13T04:00:25.780Z,10.83
2018-08-13T04:02:56.219Z,10.17
2018-08-13T04:05:26.547Z,11.87
2018-08-13T04:07:57.589Z,12.83
2018-08-13T04:10:27.862Z,11.13
2018-08-13T04:12:58.775Z,12.53
2018-08-13T04:15:29.117Z,10.00
2018-08-13T04:18:01.807Z,10.57
2018-08-13T04:20:32.289Z,10.57
2018-08-13T04:23:02.714Z,10.90
2018-08-13T04:25:33.191Z,10.83
2018-08-13T04:28:03.833Z,10.33
2018-08-13T04:30:34.514Z,10.20
2018-08-13T04:33:04.786Z,19.70
2018-08-13T04:35:35.128Z,10.50
2018-08-13T04:38:05.547Z,11.80
2018-08-13T04:40:36.113Z,10.03
2018-08-13T04:43:06.594Z,9.93
2018-08-13T04:45:36.952Z,11.50
2018-08-13T04:48:07.430Z,9.20
2018-08-13T04:50:37.914Z,11.30
2018-08-13T04:53:08.415Z,11.60
2018-08-13T04:55:38.736Z,10.67
2018-08-13T04:58:09.045Z,15.30
2018-08-13T05:00:39.550Z,10.87
2018-08-13T05:03:10.220Z,17.33
2018-08-13T05:05:40.639Z,10.47
2018-08-13T05:08:11.037Z,11.10
2018-08-13T05:10:41.545Z,10.67
2018-08-13T05:13:11.916Z,10.10
2018-08-13T05:15:42.246Z,10.53
2018-08-13T05:18:12.681Z,11.50
2018-08-13T05:20:43.006Z,12.90
2018-08-13T05:23:13.433Z,15.77
2018-08-13T05:25:44.955Z,12.70
2018-08-13T05:28:15.273Z,11.13
2018-08-13T05:30:45.662Z,12.70
2018-08-13T05:33:16.284Z,13.50
2018-08-13T05:35:46.716Z,10.47
2018-08-13T05:38:16.902Z,9.67
2018-08-13T05:40:47.270Z,11.27
2018-08-13T05:43:17.865Z,9.80
2018-08-13T05:45:48.446Z,15.77
2018-08-13T05:48:19.024Z,10.20
2018-08-13T05:50:55.936Z,12.20
2018-08-13T05:53:26.424Z,11.30
2018-08-13T05:55:56.809Z,11.33
2018-08-13T05:58:27.172Z,12.47
2018-08-13T06:00:57.749Z,9.87
2018-08-13T06:03:28.038Z,10.50
2018-08-13T06:05:58.485Z,11.60
2018-08-13T06:08:28.899Z,11.60
2018-08-13T06:10:59.422Z,11.23
2018-08-13T06:13:29.726Z,12.83
2018-08-13T06:16:00.175Z,13.53
2018-08-13T06:18:30.643Z,9.57
2018-08-13T06:21:00.970Z,10.03
2018-08-13T06:23:31.345Z,10.73
2018-08-13T06:26:01.927Z,11.60
2018-08-13T06:28:32.551Z,11.20
2018-08-13T06:31:02.858Z,13.27
2018-08-13T06:33:33.134Z,10.37
2018-08-13T06:36:03.607Z,10.10
2018-08-13T06:38:34.126Z,10.93
2018-08-13T06:41:04.456Z,12.17
2018-08-13T06:43:34.834Z,9.53
2018-08-13T06:46:05.331Z,10.10
2018-08-13T06:48:35.730Z,11.10
2018-08-13T06:51:06.127Z,11.23
2018-08-13T06:53:38.324Z,11.50
2018-08-13T06:56:09.230Z,11.97
2018-08-13T06:58:39.757Z,12.07
2018-08-13T07:01:10.266Z,13.90
2018-08-13T07:03:40.535Z,11.30
2018-08-13T07:06:10.929Z,11.67
2018-08-13T07:08:41.327Z,11.73
2018-08-13T07:11:11.498Z,11.30
2018-08-13T07:13:41.956Z,9.77
2018-08-13T07:16:12.871Z,11.97
2018-08-13T07:18:43.305Z,10.57
2018-08-13T07:21:13.748Z,11.60
2018-08-13T07:23:44.200Z,11.10
2018-08-13T07:26:14.643Z,10.30
2018-08-13T07:28:45.036Z,10.47
2018-08-13T07:31:15.623Z,17.30
2018-08-13T07:33:46.260Z,11.10
2018-08-13T07:36:16.689Z,11.60
2018-08-13T07:38:47.067Z,10.30
2018-08-13T07:41:17.388Z,11.73
2018-08-13T07:43:47.701Z,10.00
2018-08-13T07:46:18.141Z,8.93
2018-08-13T07:48:48.575Z,11.33
2018-08-13T07:51:19.236Z,8.67
2018-08-13T07:53:49.826Z,9.40
2018-08-13T07:56:20.216Z,10.73
2018-08-13T07:58:50.539Z,9.83
2018-08-13T08:01:21.435Z,17.83
2018-08-13T08:03:52.856Z,10.00
2018-08-13T08:06:23.353Z,11.07
2018-08-13T08:08:53.817Z,10.63
2018-08-13T08:11:24.242Z,9.97
2018-08-13T08:13:54.554Z,10.03
2018-08-13T08:16:24.878Z,12.13
2018-08-13T08:18:55.363Z,11.60
2018-08-13T08:21:25.641Z,9.20
2018-08-13T08:23:56.161Z,9.40
2018-08-13T08:26:26.364Z,10.07
2018-08-13T08:28:56.717Z,10.23
2018-08-13T08:31:27.214Z,9.50
2018-08-13T08:33:57.679Z,11.20
2018-08-13T08:36:27.955Z,10.23
2018-08-13T08:38:58.342Z,9.03
2018-08-13T08:41:29.335Z,10.97
2018-08-13T08:44:00.258Z,9.00
2018-08-13T08:46:30.615Z,10.40
2018-08-13T08:49:01.067Z,10.63
2018-08-13T08:51:31.363Z,8.67
2018-08-13T08:54:01.673Z,9.30
2018-08-13T08:56:32.152Z,9.10
2018-08-13T08:59:02.637Z,10.03
2018-08-13T09:01:33.187Z,12.00
2018-08-13T09:04:03.530Z,11.93
2018-08-13T09:06:33.862Z,9.47
2018-08-13T09:09:05.143Z,9.30
2018-08-13T09:11:35.581Z,9.03
2018-08-13T09:14:06.911Z,10.47
2018-08-13T09:16:37.370Z,9.27
2018-08-13T09:19:23.872Z,8.90
2018-08-13T09:22:05.230Z,13.40
2018-08-13T09:24:52.085Z,8.27
2018-08-13T09:27:38.810Z,9.07
2018-08-13T09:31:26.332Z,9.50
2018-08-13T09:35:14.717Z,9.20
2018-08-13T09:37:45.099Z,9.07
2018-08-13T09:40:15.618Z,8.57
2018-08-13T09:42:45.978Z,16.57
2018-08-13T09:45:21.776Z,10.10
2018-08-13T09:47:52.320Z,9.37
2018-08-13T09:50:22.828Z,9.37
2018-08-13T09:52:53.307Z,9.77
2018-08-13T09:55:23.818Z,9.73
2018-08-13T09:57:54.140Z,9.67
2018-08-13T10:00:29.497Z,10.37
2018-08-13T10:02:59.878Z,10.30
2018-08-13T10:05:30.427Z,9.17
2018-08-13T10:08:00.887Z,9.10
2018-08-13T10:10:31.276Z,11.87
2018-08-13T10:13:01.503Z,9.50
2018-08-13T10:15:31.892Z,11.53
2018-08-13T10:18:02.293Z,9.30
2018-08-13T10:20:32.459Z,9.93
2018-08-13T10:23:02.850Z,9.67
2018-08-13T10:25:33.257Z,11.63
2018-08-13T10:28:03.802Z,8.43
2018-08-13T10:30:34.187Z,9.70
2018-08-13T10:33:04.452Z,8.63
2018-08-13T10:35:34.735Z,8.90
2018-08-13T10:38:05.294Z,8.70
2018-08-13T10:40:35.680Z,9.63
2018-08-13T10:43:05.910Z,8.23
2018-08-13T10:45:36.299Z,12.00
2018-08-13T10:48:10.186Z,8.50
2018-08-13T10:50:40.584Z,9.30
2018-08-13T10:53:10.982Z,8.23
2018-08-13T10:55:48.203Z,10.57
2018-08-13T10:58:18.642Z,10.20
2018-08-13T11:00:49.148Z,8.43
2018-08-13T11:03:19.393Z,9.80
2018-08-13T11:05:49.784Z,8.47
2018-08-13T11:08:20.175Z,9.70
2018-08-13T11:10:50.330Z,9.87
2018-08-13T11:13:20.812Z,9.73
2018-08-13T11:15:51.200Z,8.43
2018-08-13T11:18:21.643Z,8.23
2018-08-13T11:20:52.169Z,8.27
2018-08-13T11:23:22.528Z,14.40
2018-08-13T11:25:52.789Z,9.07
2018-08-13T11:28:23.469Z,8.57
2018-08-13T11:30:53.968Z,7.90
2018-08-13T11:33:24.518Z,9.80
2018-08-13T11:35:55.216Z,9.60
2018-08-13T11:38:25.910Z,11.00
2018-08-13T11:40:56.384Z,8.40
2018-08-13T11:43:26.665Z,8.50
2018-08-13T11:45:57.052Z,10.00
2018-08-13T11:48:27.593Z,8.73
2018-08-13T11:50:58.188Z,8.30
2018-08-13T11:53:28.726Z,7.70
2018-08-13T11:55:59.364Z,8.77
2018-08-13T11:58:29.811Z,7.80
2018-08-13T12:01:00.269Z,9.10
2018-08-13T12:03:31.002Z,8.73
2018-08-13T12:06:01.443Z,10.03
2018-08-13T12:08:31.955Z,10.70
2018-08-13T12:11:02.467Z,9.50
2018-08-13T12:13:32.975Z,9.10
2018-08-13T12:16:03.272Z,10.37
2018-08-13T12:18:33.800Z,9.70
2018-08-13T12:21:04.124Z,9.20
2018-08-13T12:23:34.213Z,9.07
2018-08-13T12:26:04.164Z,9.83
2018-08-13T12:28:34.612Z,8.63
2018-08-13T12:31:05.051Z,8.80
2018-08-13T12:33:35.594Z,8.50
2018-08-13T12:36:06.118Z,8.80
2018-08-13T12:38:36.383Z,8.83
2018-08-13T12:41:07.267Z,7.90
2018-08-13T12:43:37.544Z,8.37
2018-08-13T12:46:08.485Z,8.00
2018-08-13T12:48:39.023Z,8.67
2018-08-13T12:51:09.554Z,8.00
2018-08-13T12:53:40.014Z,8.67
2018-08-13T12:56:10.528Z,8.77
2018-08-13T12:58:41.002Z,7.93
2018-08-13T13:01:11.978Z,8.63
2018-08-13T13:03:42.411Z,7.43
2018-08-13T13:06:12.711Z,8.87
2018-08-13T13:08:43.214Z,7.90
2018-08-13T13:11:13.690Z,8.43
2018-08-13T13:13:44.098Z,8.00
2018-08-13T13:16:14.432Z,6.70
2018-08-13T13:18:44.901Z,8.10
2018-08-13T13:21:15.224Z,8.37
2018-08-13T13:23:45.533Z,7.10
2018-08-13T13:26:16.071Z,7.27
2018-08-13T13:28:46.348Z,8.40
2018-08-13T13:31:16.786Z,7.97
2018-08-13T13:33:47.034Z,8.40
2018-08-13T13:36:17.600Z,8.50
2018-08-13T13:38:47.802Z,8.53
2018-08-13T13:41:18.146Z,9.17
2018-08-13T13:43:48.456Z,8.10
2018-08-13T13:46:18.984Z,8.00
2018-08-13T13:48:49.434Z,9.10
2018-08-13T13:51:19.608Z,8.83
2018-08-13T13:53:49.573Z,8.03
2018-08-13T13:56:19.823Z,8.47
2018-08-13T13:58:50.194Z,8.17
2018-08-13T14:01:20.594Z,8.70
2018-08-13T14:03:50.974Z,8.30
2018-08-13T14:06:21.602Z,9.10
2018-08-13T14:08:52.006Z,9.00
2018-08-13T14:11:22.430Z,8.50
2018-08-13T14:13:53.076Z,9.10
2018-08-13T14:16:23.519Z,8.87
2018-08-13T14:18:53.953Z,8.93
2018-08-13T14:21:24.202Z,8.17
2018-08-13T14:23:54.531Z,8.37
2018-08-13T14:26:24.964Z,8.80
2018-08-13T14:28:55.414Z,9.20
2018-08-13T14:31:25.912Z,8.53
2018-08-13T14:33:56.370Z,8.40
2018-08-13T14:36:26.619Z,8.50
2018-08-13T14:38:57.142Z,8.27
2018-08-13T14:41:27.739Z,9.70
2018-08-13T14:43:57.992Z,10.17
2018-08-13T14:46:28.268Z,8.77
2018-08-13T14:48:58.751Z,9.30
2018-08-13T14:51:29.046Z,8.83
2018-08-13T14:53:59.351Z,10.40
2018-08-13T14:56:29.843Z,9.30
2018-08-13T14:59:00.240Z,11.07
2018-08-13T15:01:30.823Z,8.83
2018-08-13T15:04:02.338Z,9.70
2018-08-13T15:06:32.845Z,10.30
2018-08-13T15:09:03.223Z,9.50
2018-08-13T15:11:36.749Z,9.03
2018-08-13T15:14:07.927Z,9.77
2018-08-13T15:16:38.336Z,9.20
2018-08-13T15:19:09.503Z,9.97
2018-08-13T15:21:39.892Z,9.33
2018-08-13T15:24:10.266Z,10.10
2018-08-13T15:26:40.560Z,9.13
2018-08-13T15:29:10.903Z,9.90
2018-08-13T15:31:41.213Z,8.67
2018-08-13T15:34:11.635Z,9.77
2018-08-13T15:36:41.959Z,9.37
2018-08-13T15:39:12.715Z,9.90
2018-08-13T15:41:43.039Z,10.30
2018-08-13T15:44:13.355Z,9.03
2018-08-13T15:46:43.834Z,9.70
2018-08-13T15:49:14.286Z,9.40
2018-08-13T15:51:50.831Z,9.50
2018-08-13T15:54:21.168Z,9.17
2018-08-13T15:56:51.492Z,9.57
2018-08-13T15:59:21.817Z,10.80
2018-08-13T16:01:52.396Z,10.17
2018-08-13T16:04:22.882Z,10.33
2018-08-13T16:06:53.710Z,11.93
2018-08-13T16:09:24.075Z,9.90
2018-08-13T16:11:54.500Z,9.67
2018-08-13T16:14:24.910Z,9.80
2018-08-13T16:16:56.057Z,10.50
2018-08-13T16:19:26.479Z,9.47
2018-08-13T16:21:56.974Z,8.70
2018-08-13T16:24:27.469Z,10.07
2018-08-13T16:26:57.998Z,8.73
2018-08-13T16:29:28.361Z,9.73
2018-08-13T16:31:59.059Z,10.90
2018-08-13T16:34:29.514Z,10.10
2018-08-13T16:37:00.153Z,9.80
2018-08-13T16:39:31.111Z,9.63
2018-08-13T16:42:01.847Z,10.03
2018-08-13T16:44:32.404Z,10.20
2018-08-13T16:47:02.996Z,9.77
2018-08-13T16:49:33.927Z,10.23
2018-08-13T16:52:04.613Z,9.23
2018-08-13T16:54:34.837Z,9.80
2018-08-13T16:57:05.397Z,12.13
2018-08-13T16:59:35.749Z,10.70
2018-08-13T17:02:06.464Z,10.07
2018-08-13T17:04:36.688Z,10.27
2018-08-13T17:07:07.401Z,10.90
2018-08-13T17:09:38.005Z,10.87
2018-08-13T17:12:08.451Z,12.43
2018-08-13T17:14:38.778Z,11.20
2018-08-13T17:17:09.171Z,15.77
2018-08-13T17:19:39.555Z,14.03
2018-08-13T17:22:09.854Z,10.40
2018-08-13T17:24:40.240Z,10.23
2018-08-13T17:27:10.548Z,10.63
2018-08-13T17:29:41.034Z,10.87
2018-08-13T17:32:11.599Z,10.60
2018-08-13T17:34:42.011Z,11.47
2018-08-13T17:37:12.908Z,14.30
2018-08-13T17:39:43.666Z,15.93
2018-08-13T17:42:14.321Z,16.97
2018-08-13T17:44:44.926Z,12.47
2018-08-13T17:47:15.566Z,10.83
2018-08-13T17:49:46.304Z,11.53
2018-08-13T17:52:16.910Z,16.07
2018-08-13T17:54:47.631Z,11.60
2018-08-13T17:57:18.719Z,10.90
2018-08-13T17:59:49.116Z,10.80
2018-08-13T18:02:19.730Z,11.40
2018-08-13T18:04:50.387Z,10.73
2018-08-13T18:07:20.740Z,11.20
2018-08-13T18:09:51.139Z,11.43
2018-08-13T18:12:21.530Z,11.77
2018-08-13T18:14:51.974Z,11.97
2018-08-13T18:17:22.283Z,11.53
2018-08-13T18:19:52.714Z,11.07
2018-08-13T18:22:23.164Z,10.90
2018-08-13T18:24:53.476Z,11.87
2018-08-13T18:27:23.911Z,11.73
2018-08-13T18:29:54.508Z,11.47
2018-08-13T18:32:25.175Z,10.90
2018-08-13T18:34:55.811Z,11.07
2018-08-13T18:37:27.017Z,11.27
2018-08-13T18:39:57.434Z,11.53
2018-08-13T18:42:27.880Z,11.73
2018-08-13T18:44:58.390Z,11.50
2018-08-13T18:47:28.800Z,10.60
2018-08-13T18:49:59.238Z,15.93
2018-08-13T18:52:29.674Z,11.17
2018-08-13T18:55:00.101Z,12.67
2018-08-13T18:57:30.581Z,11.40
2018-08-13T19:00:00.910Z,14.47
2018-08-13T19:02:31.188Z,13.10
2018-08-13T19:05:01.764Z,13.90
2018-08-13T19:07:32.085Z,10.23
2018-08-13T19:10:02.565Z,10.13
2018-08-13T19:12:32.965Z,11.83
2018-08-13T19:15:03.590Z,11.93
2018-08-13T19:17:34.081Z,10.93
2018-08-13T19:20:04.679Z,13.53
2018-08-13T19:22:35.862Z,15.87
2018-08-13T19:25:08.272Z,15.13
2018-08-13T19:27:38.865Z,12.57
2018-08-13T19:30:10.395Z,11.53
2018-08-13T19:32:40.993Z,12.53
2018-08-13T19:35:11.779Z,13.77
2018-08-13T19:37:42.191Z,13.27
2018-08-13T19:40:16.631Z,12.30
2018-08-13T19:42:48.021Z,12.83
2018-08-13T19:45:19.133Z,12.90
2018-08-13T19:47:50.036Z,12.73
2018-08-13T19:50:20.344Z,16.93
2018-08-13T19:52:51.208Z,15.50
2018-08-13T19:55:21.773Z,13.30
2018-08-13T19:57:52.102Z,13.73
2018-08-13T20:00:27.180Z,13.73
2018-08-13T20:02:57.579Z,13.43
2018-08-13T20:05:29.333Z,13.77
2018-08-13T20:07:59.647Z,12.10
2018-08-13T20:10:30.284Z,12.00
2018-08-13T20:13:00.853Z,13.07
2018-08-13T20:15:31.318Z,14.83
2018-08-13T20:18:01.917Z,12.60
2018-08-13T20:20:32.507Z,13.77
2018-08-13T20:23:02.819Z,12.47
2018-08-13T20:25:33.279Z,12.47
2018-08-13T20:28:03.862Z,12.70
2018-08-13T20:30:34.439Z,13.10
2018-08-13T20:33:05.078Z,13.13
2018-08-13T20:35:35.491Z,13.00
2018-08-13T20:38:05.978Z,14.07
2018-08-13T20:40:36.405Z,11.87
2018-08-13T20:43:07.122Z,14.87
2018-08-13T20:45:37.442Z,13.60
2018-08-13T20:48:08.129Z,13.20
2018-08-13T20:50:38.616Z,12.20
2018-08-13T20:53:08.799Z,12.87
2018-08-13T20:55:39.208Z,19.67
2018-08-13T20:58:09.769Z,15.23
2018-08-13T21:00:40.349Z,14.77
2018-08-13T21:03:10.597Z,15.93
2018-08-13T21:05:40.970Z,13.37
2018-08-13T21:08:11.530Z,12.20
2018-08-13T21:10:42.026Z,12.10
2018-08-13T21:13:12.650Z,12.43
2018-08-13T21:15:43.103Z,13.73
2018-08-13T21:18:13.645Z,13.87
2018-08-13T21:20:44.050Z,12.93
2018-08-13T21:23:14.349Z,14.00
2018-08-13T21:25:44.772Z,13.37
2018-08-13T21:28:15.212Z,13.90
2018-08-13T21:30:45.550Z,14.43
2018-08-13T21:33:16.060Z,12.90
2018-08-13T21:35:46.288Z,13.83
2018-08-13T21:38:16.710Z,13.70
2018-08-13T21:40:47.136Z,13.30
2018-08-13T21:43:17.610Z,14.17
2018-08-13T21:45:47.868Z,13.60
2018-08-13T21:48:18.166Z,13.00
2018-08-13T21:50:48.623Z,13.00
2018-08-13T21:53:18.993Z,12.90
2018-08-13T21:55:49.497Z,16.43
2018-08-13T21:58:19.754Z,15.27
2018-08-13T22:00:54.937Z,16.37
2018-08-13T22:03:26.079Z,13.83
2018-08-13T22:05:56.554Z,14.40
2018-08-13T22:08:26.999Z,14.80
2018-08-13T22:10:57.338Z,16.80
2018-08-13T22:13:27.990Z,16.00
2018-08-13T22:15:58.323Z,13.80
2018-08-13T22:18:28.908Z,14.67
2018-08-13T22:21:00.717Z,14.87
2018-08-13T22:23:31.195Z,13.57
2018-08-13T22:26:01.665Z,14.10
2018-08-13T22:28:32.009Z,13.90
2018-08-13T22:31:02.302Z,13.90
2018-08-13T22:33:32.667Z,13.73
2018-08-13T22:36:03.196Z,13.57
2018-08-13T22:38:33.472Z,13.87
2018-08-13T22:41:03.816Z,13.17
2018-08-13T22:43:34.268Z,13.30
2018-08-13T22:46:04.857Z,13.90
2018-08-13T22:48:35.459Z,14.13
2018-08-13T22:51:06.039Z,14.67
2018-08-13T22:53:37.183Z,15.17
2018-08-13T22:56:07.608Z,14.13
2018-08-13T22:58:37.995Z,13.10
2018-08-13T23:01:08.576Z,15.97
2018-08-13T23:03:38.866Z,13.10
2018-08-13T23:06:09.611Z,14.37
2018-08-13T23:08:40.889Z,14.20
2018-08-13T23:11:11.108Z,14.47
2018-08-13T23:13:41.459Z,14.23
2018-08-13T23:16:11.865Z,13.30
2018-08-13T23:18:42.403Z,14.70
2018-08-13T23:21:12.791Z,15.33
2018-08-13T23:23:43.053Z,15.63
2018-08-13T23:26:13.371Z,12.67
2018-08-13T23:28:43.796Z,13.03
2018-08-13T23:31:14.402Z,13.30
2018-08-13T23:33:44.963Z,13.73
2018-08-13T23:36:15.239Z,12.67
2018-08-13T23:38:45.759Z,12.77
2018-08-13T23:41:16.062Z,13.00
2018-08-13T23:43:46.396Z,12.13
2018-08-13T23:46:16.857Z,12.40
2018-08-13T23:48:47.291Z,11.30
2018-08-13T23:51:17.609Z,9.77
2018-08-13T23:53:47.887Z,9.63
2018-08-13T23:56:18.429Z,8.20
2018-08-13T23:58:48.712Z,8.37
